Kleinsee, South Africa
Current Conditions -  °F | °C
As of 10:00 AM on Wednesday 22 Oct 2014 (Local Time) from FAUP Reporting Station
Clear Clear  
Wind Chill: 88°   Ceiling: Unl
Heat Index: 88°   Visibility: 6mi
Dew Point: 32°   Wind: 2mph
Humidity: 14%   Direction: 350°N
Pressure: 30.06"   Gusts: NA
Location:  29.68°S, 17.07°E
Report Text: FAUP 220800Z 35002KT CAVOK 31/00 Q1018 NOSIG
Loading
Personal Weather Stations






























Interactive Weather Map
Tropical Storm Tracking
New forecast layout! Learn more

10-Day Weather Forecast

Advertisements
Track Severe Weather on mobile